sensor_id;sensor_type;location;lat;lon;timestamp;P1;durP1;ratioP1;P2;durP2;ratioP2
77310;SDS011;66371;52.714;5.074;2023-04-24T14:22:09;11.20;;;7.43;;
77310;SDS011;66371;52.714;5.074;2023-04-24T14:24:34;12.00;;;7.95;;
77310;SDS011;66371;52.714;5.074;2023-04-24T14:27:01;10.43;;;7.28;;
77310;SDS011;66371;52.714;5.074;2023-04-24T14:31:52;10.52;;;8.82;;
77310;SDS011;66371;52.714;5.074;2023-04-24T14:36:43;7.57;;;6.87;;
77310;SDS011;66371;52.714;5.074;2023-04-24T14:39:08;13.15;;;7.68;;
77310;SDS011;66371;52.714;5.074;2023-04-24T14:41:35;13.82;;;12.68;;
77310;SDS011;66371;52.714;5.074;2023-04-24T14:44:02;13.30;;;11.68;;
77310;SDS011;66371;52.714;5.074;2023-04-24T14:46:29;7.72;;;6.80;;
77310;SDS011;66371;52.714;5.074;2023-04-24T14:49:14;6.60;;;6.03;;
77310;SDS011;66371;52.714;5.074;2023-04-24T14:54:06;14.70;;;9.90;;
77310;SDS011;66371;52.714;5.074;2023-04-24T14:58:57;8.00;;;7.25;;
77310;SDS011;66371;52.714;5.074;2023-04-24T15:03:49;8.25;;;7.53;;
77310;SDS011;66371;52.714;5.074;2023-04-24T15:08:40;9.77;;;8.65;;
77310;SDS011;66371;52.714;5.074;2023-04-24T15:11:05;12.75;;;8.38;;
77310;SDS011;66371;52.714;5.074;2023-04-24T15:15:56;9.77;;;6.72;;
77310;SDS011;66371;52.714;5.074;2023-04-24T15:18:22;13.23;;;9.02;;
77310;SDS011;66371;52.714;5.074;2023-04-24T15:20:47;7.40;;;6.80;;
77310;SDS011;66371;52.714;5.074;2023-04-24T15:23:13;7.68;;;7.10;;
77310;SDS011;66371;52.714;5.074;2023-04-24T15:25:38;8.93;;;8.10;;
77310;SDS011;66371;52.714;5.074;2023-04-24T15:28:04;8.20;;;6.88;;
77310;SDS011;66371;52.714;5.074;2023-04-24T15:30:31;7.28;;;6.55;;
77310;SDS011;66371;52.714;5.074;2023-04-24T15:32:56;8.68;;;7.90;;
77310;SDS011;66371;52.714;5.074;2023-04-24T15:37:47;7.63;;;7.13;;
77310;SDS011;66371;52.714;5.074;2023-04-24T15:40:13;8.20;;;6.63;;
77310;SDS011;66371;52.714;5.074;2023-04-24T15:42:41;10.40;;;9.80;;
77310;SDS011;66371;52.714;5.074;2023-04-24T15:45:07;12.93;;;11.68;;
77310;SDS011;66371;52.714;5.074;2023-04-24T15:47:34;8.65;;;7.95;;
77310;SDS011;66371;52.714;5.074;2023-04-24T15:50:00;6.72;;;6.22;;
77310;SDS011;66371;52.714;5.074;2023-04-24T15:54:51;6.63;;;6.13;;
77310;SDS011;66371;52.714;5.074;2023-04-24T15:57:16;8.07;;;7.25;;
77310;SDS011;66371;52.714;5.074;2023-04-24T15:59:42;7.45;;;6.85;;
77310;SDS011;66371;52.714;5.074;2023-04-24T16:02:08;7.47;;;6.82;;
77310;SDS011;66371;52.714;5.074;2023-04-24T16:04:35;12.57;;;11.85;;
77310;SDS011;66371;52.714;5.074;2023-04-24T16:07:01;7.68;;;6.95;;
77310;SDS011;66371;52.714;5.074;2023-04-24T16:09:26;5.93;;;5.43;;
77310;SDS011;66371;52.714;5.074;2023-04-24T16:11:52;10.25;;;8.50;;
77310;SDS011;66371;52.714;5.074;2023-04-24T16:14:18;6.78;;;6.28;;
77310;SDS011;66371;52.714;5.074;2023-04-24T16:16:43;7.20;;;6.60;;
77310;SDS011;66371;52.714;5.074;2023-04-24T16:19:09;7.75;;;7.35;;
77310;SDS011;66371;52.714;5.074;2023-04-24T16:21:34;7.07;;;6.32;;
77310;SDS011;66371;52.714;5.074;2023-04-24T16:24:00;7.82;;;7.32;;
77310;SDS011;66371;52.714;5.074;2023-04-24T16:26:25;9.23;;;8.55;;
77310;SDS011;66371;52.714;5.074;2023-04-24T16:28:50;9.85;;;8.77;;
77310;SDS011;66371;52.714;5.074;2023-04-24T16:31:16;7.32;;;6.75;;
77310;SDS011;66371;52.714;5.074;2023-04-24T16:33:41;7.60;;;7.10;;
77310;SDS011;66371;52.714;5.074;2023-04-24T16:36:07;12.32;;;11.55;;
77310;SDS011;66371;52.714;5.074;2023-04-24T16:38:33;6.05;;;5.75;;
77310;SDS011;66371;52.714;5.074;2023-04-24T16:41:02;10.43;;;9.68;;
77310;SDS011;66371;52.714;5.074;2023-04-24T16:43:28;7.05;;;6.15;;
77310;SDS011;66371;52.714;5.074;2023-04-24T16:45:53;8.43;;;6.95;;
77310;SDS011;66371;52.714;5.074;2023-04-24T16:50:44;7.80;;;7.20;;
77310;SDS011;66371;52.714;5.074;2023-04-24T16:53:11;8.88;;;8.27;;
77310;SDS011;66371;52.714;5.074;2023-04-24T16:55:37;8.55;;;7.95;;
77310;SDS011;66371;52.714;5.074;2023-04-24T16:58:02;10.98;;;9.38;;
77310;SDS011;66371;52.714;5.074;2023-04-24T17:00:28;7.15;;;6.55;;
77310;SDS011;66371;52.714;5.074;2023-04-24T17:02:54;8.25;;;7.55;;
77310;SDS011;66371;52.714;5.074;2023-04-24T17:05:19;7.88;;;7.07;;
77310;SDS011;66371;52.714;5.074;2023-04-24T17:07:47;9.38;;;8.48;;
77310;SDS011;66371;52.714;5.074;2023-04-24T17:10:14;8.70;;;8.10;;
77310;SDS011;66371;52.714;5.074;2023-04-24T17:12:40;8.25;;;7.03;;
77310;SDS011;66371;52.714;5.074;2023-04-24T17:17:31;8.02;;;7.22;;
77310;SDS011;66371;52.714;5.074;2023-04-24T17:19:56;8.90;;;8.18;;
77310;SDS011;66371;52.714;5.074;2023-04-24T17:22:21;9.70;;;7.43;;
77310;SDS011;66371;52.714;5.074;2023-04-24T17:24:47;10.30;;;6.83;;
77310;SDS011;66371;52.714;5.074;2023-04-24T17:27:12;8.70;;;7.53;;
77310;SDS011;66371;52.714;5.074;2023-04-24T17:29:38;9.52;;;8.13;;
77310;SDS011;66371;52.714;5.074;2023-04-24T17:32:04;9.93;;;6.57;;
77310;SDS011;66371;52.714;5.074;2023-04-24T17:34:35;7.95;;;7.13;;
77310;SDS011;66371;52.714;5.074;2023-04-24T17:37:01;12.15;;;7.95;;
77310;SDS011;66371;52.714;5.074;2023-04-24T17:39:28;7.88;;;7.32;;
77310;SDS011;66371;52.714;5.074;2023-04-24T17:41:53;6.85;;;6.05;;
77310;SDS011;66371;52.714;5.074;2023-04-24T17:44:19;7.93;;;7.32;;
77310;SDS011;66371;52.714;5.074;2023-04-24T17:46:45;7.38;;;6.88;;
77310;SDS011;66371;52.714;5.074;2023-04-24T17:49:10;8.90;;;8.07;;
77310;SDS011;66371;52.714;5.074;2023-04-24T17:51:36;11.60;;;11.00;;
77310;SDS011;66371;52.714;5.074;2023-04-24T17:54:01;6.50;;;6.10;;
77310;SDS011;66371;52.714;5.074;2023-04-24T17:56:27;8.95;;;8.15;;
77310;SDS011;66371;52.714;5.074;2023-04-24T17:58:52;8.65;;;7.05;;
77310;SDS011;66371;52.714;5.074;2023-04-24T18:01:18;7.47;;;6.82;;
77310;SDS011;66371;52.714;5.074;2023-04-24T18:03:44;7.28;;;6.78;;
77310;SDS011;66371;52.714;5.074;2023-04-24T18:06:12;9.20;;;8.43;;
77310;SDS011;66371;52.714;5.074;2023-04-24T18:08:41;8.70;;;8.07;;
77310;SDS011;66371;52.714;5.074;2023-04-24T18:11:07;11.60;;;6.68;;
77310;SDS011;66371;52.714;5.074;2023-04-24T18:13:32;8.15;;;7.65;;
77310;SDS011;66371;52.714;5.074;2023-04-24T18:18:23;9.07;;;8.38;;
77310;SDS011;66371;52.714;5.074;2023-04-24T18:23:14;9.03;;;8.13;;
77310;SDS011;66371;52.714;5.074;2023-04-24T18:25:40;7.78;;;7.28;;
77310;SDS011;66371;52.714;5.074;2023-04-24T18:28:05;9.57;;;8.98;;
77310;SDS011;66371;52.714;5.074;2023-04-24T18:30:31;7.88;;;7.25;;
77310;SDS011;66371;52.714;5.074;2023-04-24T18:32:58;7.03;;;6.32;;
77310;SDS011;66371;52.714;5.074;2023-04-24T18:35:24;7.18;;;6.32;;
77310;SDS011;66371;52.714;5.074;2023-04-24T18:37:49;8.82;;;8.43;;
77310;SDS011;66371;52.714;5.074;2023-04-24T18:42:41;9.18;;;8.45;;
77310;SDS011;66371;52.714;5.074;2023-04-24T18:45:07;8.75;;;7.85;;
77310;SDS011;66371;52.714;5.074;2023-04-24T18:47:34;9.68;;;8.07;;
77310;SDS011;66371;52.714;5.074;2023-04-24T18:50:00;9.32;;;8.30;;
77310;SDS011;66371;52.714;5.074;2023-04-24T18:54:46;6.82;;;6.25;;
77310;SDS011;66371;52.714;5.074;2023-04-24T18:57:12;7.75;;;7.20;;
77310;SDS011;66371;52.714;5.074;2023-04-24T18:59:39;13.25;;;8.68;;
77310;SDS011;66371;52.714;5.074;2023-04-24T19:02:04;10.77;;;9.55;;
77310;SDS011;66371;52.714;5.074;2023-04-24T19:04:31;7.90;;;7.00;;
77310;SDS011;66371;52.714;5.074;2023-04-24T19:06:56;7.72;;;7.13;;
77310;SDS011;66371;52.714;5.074;2023-04-24T19:09:22;11.93;;;7.97;;
77310;SDS011;66371;52.714;5.074;2023-04-24T19:11:47;10.20;;;6.55;;
77310;SDS011;66371;52.714;5.074;2023-04-24T19:14:13;8.30;;;7.47;;
77310;SDS011;66371;52.714;5.074;2023-04-24T19:16:40;8.27;;;7.57;;
77310;SDS011;66371;52.714;5.074;2023-04-24T19:19:06;9.88;;;6.93;;
77310;SDS011;66371;52.714;5.074;2023-04-24T19:21:38;10.05;;;9.05;;
77310;SDS011;66371;52.714;5.074;2023-04-24T19:24:03;6.85;;;6.30;;
77310;SDS011;66371;52.714;5.074;2023-04-24T19:28:58;12.65;;;7.13;;
77310;SDS011;66371;52.714;5.074;2023-04-24T19:31:24;10.93;;;7.93;;
77310;SDS011;66371;52.714;5.074;2023-04-24T19:33:49;8.10;;;7.55;;
77310;SDS011;66371;52.714;5.074;2023-04-24T19:36:15;7.45;;;6.55;;
77310;SDS011;66371;52.714;5.074;2023-04-24T19:38:44;9.15;;;6.22;;
77310;SDS011;66371;52.714;5.074;2023-04-24T19:41:10;9.32;;;7.53;;
77310;SDS011;66371;52.714;5.074;2023-04-24T19:43:41;13.48;;;8.57;;
77310;SDS011;66371;52.714;5.074;2023-04-24T19:46:06;9.00;;;6.63;;
77310;SDS011;66371;52.714;5.074;2023-04-24T19:48:32;13.05;;;8.27;;
77310;SDS011;66371;52.714;5.074;2023-04-24T19:50:58;9.13;;;7.60;;
77310;SDS011;66371;52.714;5.074;2023-04-24T19:53:24;9.05;;;7.47;;
77310;SDS011;66371;52.714;5.074;2023-04-24T19:55:49;10.88;;;7.03;;
77310;SDS011;66371;52.714;5.074;2023-04-24T20:00:40;11.83;;;8.47;;
77310;SDS011;66371;52.714;5.074;2023-04-24T20:03:06;17.52;;;9.32;;
77310;SDS011;66371;52.714;5.074;2023-04-24T20:05:32;20.33;;;8.70;;
77310;SDS011;66371;52.714;5.074;2023-04-24T20:07:57;11.18;;;9.57;;
77310;SDS011;66371;52.714;5.074;2023-04-24T20:10:23;12.98;;;8.90;;
77310;SDS011;66371;52.714;5.074;2023-04-24T20:12:48;16.75;;;9.85;;
77310;SDS011;66371;52.714;5.074;2023-04-24T20:15:14;15.93;;;10.95;;
77310;SDS011;66371;52.714;5.074;2023-04-24T20:17:40;19.77;;;10.68;;
77310;SDS011;66371;52.714;5.074;2023-04-24T20:20:06;28.30;;;12.15;;
77310;SDS011;66371;52.714;5.074;2023-04-24T20:22:33;27.30;;;11.32;;
77310;SDS011;66371;52.714;5.074;2023-04-24T20:25:04;21.00;;;10.45;;
77310;SDS011;66371;52.714;5.074;2023-04-24T20:27:30;19.67;;;9.75;;
77310;SDS011;66371;52.714;5.074;2023-04-24T20:29:56;13.60;;;9.40;;
77310;SDS011;66371;52.714;5.074;2023-04-24T20:32:23;13.25;;;8.40;;
77310;SDS011;66371;52.714;5.074;2023-04-24T20:34:49;20.08;;;9.55;;
77310;SDS011;66371;52.714;5.074;2023-04-24T20:37:17;19.83;;;11.07;;
77310;SDS011;66371;52.714;5.074;2023-04-24T20:39:43;21.30;;;12.13;;
77310;SDS011;66371;52.714;5.074;2023-04-24T20:42:13;18.58;;;14.10;;
77310;SDS011;66371;52.714;5.074;2023-04-24T20:44:40;24.45;;;10.30;;
77310;SDS011;66371;52.714;5.074;2023-04-24T20:47:06;24.75;;;12.90;;
77310;SDS011;66371;52.714;5.074;2023-04-24T20:49:32;22.55;;;11.45;;
77310;SDS011;66371;52.714;5.074;2023-04-24T20:51:57;36.50;;;15.15;;
77310;SDS011;66371;52.714;5.074;2023-04-24T20:54:23;29.35;;;12.45;;
77310;SDS011;66371;52.714;5.074;2023-04-24T20:56:49;43.25;;;15.88;;
77310;SDS011;66371;52.714;5.074;2023-04-24T20:59:14;46.22;;;16.67;;
77310;SDS011;66371;52.714;5.074;2023-04-24T21:01:40;47.72;;;18.05;;
77310;SDS011;66371;52.714;5.074;2023-04-24T21:04:08;53.35;;;20.63;;
77310;SDS011;66371;52.714;5.074;2023-04-24T21:06:33;63.50;;;20.40;;
77310;SDS011;66371;52.714;5.074;2023-04-24T21:09:01;62.60;;;20.65;;
77310;SDS011;66371;52.714;5.074;2023-04-24T21:11:28;54.45;;;19.35;;
77310;SDS011;66371;52.714;5.074;2023-04-24T21:13:53;66.53;;;20.85;;
77310;SDS011;66371;52.714;5.074;2023-04-24T21:16:21;69.45;;;24.50;;
